Time,TemperatureF,DewpointF,PressureIn,WindDirection,WindDirectionDegrees,WindSpeedMPH,WindSpeedGustMPH,Humidity,HourlyPrecipIn,Conditions,Clouds,dailyrainin,SoftwareType,DateUTC
2013-02-09 00:00:00,30.1,28.6,29.81,ENE,72,0.0,10.0,94,0.00,,CLR,0.00,VWS V14.00,2013-02-09 05:00:00,
2013-02-09 00:01:00,30.1,28.6,29.81,ENE,72,0.0,10.0,94,0.00,,,0.00,VWS V14.00,2013-02-09 05:01:00,
2013-02-09 00:02:00,30.1,28.6,29.81,NE,53,0.0,0.0,94,0.00,,,0.00,VWS V14.00,2013-02-09 05:02:00,
2013-02-09 00:04:00,30.1,28.6,29.81,NE,38,0.0,3.0,94,0.00,,,0.00,VWS V14.00,2013-02-09 05:04:00,
2013-02-09 00:09:00,30.1,28.6,29.81,NNE,16,0.0,3.0,94,0.00,,,0.00,VWS V14.00,2013-02-09 05:09:00,
2013-02-09 00:14:00,30.1,28.6,29.81,NNE,19,1.0,3.0,94,0.00,,,0.00,VWS V14.00,2013-02-09 05:14:00,
2013-02-09 00:19:00,30.1,28.6,29.81,NNW,339,5.0,6.0,94,0.00,,,0.00,VWS V14.00,2013-02-09 05:19:00,
2013-02-09 00:24:00,30.1,28.6,29.82,North,351,0.0,6.0,94,0.00,,,0.00,VWS V14.00,2013-02-09 05:24:00,
2013-02-09 00:29:00,30.1,28.6,29.81,NNE,27,2.0,6.0,94,0.00,,,0.00,VWS V14.00,2013-02-09 05:29:00,
2013-02-09 00:30:00,30.1,28.6,29.81,NNE,20,2.0,6.0,94,0.00,,CLR,0.00,VWS V14.00,2013-02-09 05:30:00,
2013-02-09 00:34:00,30.1,28.6,29.81,NNE,13,1.0,3.0,94,0.00,,,0.00,VWS V14.00,2013-02-09 05:34:00,
2013-02-09 00:39:00,30.1,28.6,29.81,NNE,19,0.0,3.0,94,0.00,,,0.00,VWS V14.00,2013-02-09 05:39:00,
2013-02-09 00:44:00,30.0,28.5,29.81,NNE,25,1.0,4.0,94,0.00,,,0.00,VWS V14.00,2013-02-09 05:44:00,
2013-02-09 00:49:00,30.1,28.8,29.81,NE,37,1.0,4.0,95,0.00,,,0.00,VWS V14.00,2013-02-09 05:49:00,
2013-02-09 00:54:00,30.1,28.8,29.81,NW,310,1.0,4.0,95,0.00,,,0.00,VWS V14.00,2013-02-09 05:54:00,
2013-02-09 01:00:00,30.0,28.7,29.81,NE,43,0.0,1.0,95,0.00,,,0.00,VWS V14.00,2013-02-09 06:00:00,
2013-02-09 01:05:00,30.1,28.8,29.81,NNE,30,0.0,2.0,95,0.00,,,0.00,VWS V14.00,2013-02-09 06:05:00,
2013-02-09 01:10:00,30.1,28.8,29.81,North,349,0.0,2.0,95,0.00,,,0.00,VWS V14.00,2013-02-09 06:10:00,
2013-02-09 01:15:00,30.1,28.8,29.82,NNE,15,0.0,2.0,95,0.00,,,0.00,VWS V14.00,2013-02-09 06:15:00,
2013-02-09 01:20:00,30.1,28.8,29.82,NW,309,0.0,2.0,95,0.00,,,0.00,VWS V14.00,2013-02-09 06:20:00,
2013-02-09 01:25:00,30.2,28.9,29.82,West,272,0.0,2.0,95,0.00,,,0.00,VWS V14.00,2013-02-09 06:25:00,
2013-02-09 01:30:00,30.2,28.9,29.82,NW,311,0.0,0.0,95,0.00,,,0.00,VWS V14.00,2013-02-09 06:30:00,
2013-02-09 01:35:00,30.2,28.9,29.82,WNW,291,0.0,1.0,95,0.00,,,0.00,VWS V14.00,2013-02-09 06:35:00,
2013-02-09 01:40:00,30.4,29.1,29.82,NNW,329,3.0,4.0,95,0.00,,,0.00,VWS V14.00,2013-02-09 06:40:00,
2013-02-09 01:45:00,30.6,29.3,29.82,NNW,340,2.0,6.0,95,0.00,,,0.00,VWS V14.00,2013-02-09 06:45:00,
2013-02-09 01:50:00,30.7,29.4,29.83,NW,316,1.0,6.0,95,0.00,,,0.00,VWS V14.00,2013-02-09 06:50:00,
2013-02-09 01:55:00,30.8,29.5,29.83,NW,304,0.0,6.0,95,0.00,,,0.00,VWS V14.00,2013-02-09 06:55:00,
2013-02-09 02:00:00,30.9,29.6,29.83,NW,319,0.0,1.0,95,0.00,,,0.00,VWS V14.00,2013-02-09 07:00:00,
2013-02-09 02:05:00,31.0,29.7,29.83,NNW,345,2.0,8.0,95,0.00,,,0.00,VWS V14.00,2013-02-09 07:05:00,
2013-02-09 02:10:00,31.0,29.7,29.83,NNW,345,2.0,8.0,95,0.00,,,0.00,VWS V14.00,2013-02-09 07:10:00,
2013-02-09 02:15:00,31.0,29.7,29.83,NNW,345,2.0,8.0,95,0.00,,,0.00,VWS V14.00,2013-02-09 07:15:00,
2013-02-09 02:20:00,31.1,29.8,29.83,NW,307,3.0,8.0,95,0.00,,,0.00,VWS V14.00,2013-02-09 07:20:00,
2013-02-09 02:25:00,31.2,29.9,29.83,NNW,336,2.0,8.0,95,0.00,,,0.00,VWS V14.00,2013-02-09 07:25:00,
2013-02-09 02:30:00,31.2,29.9,29.83,NW,316,1.0,3.0,95,0.00,,,0.00,VWS V14.00,2013-02-09 07:30:00,
2013-02-09 02:35:00,31.3,30.0,29.83,NNW,329,0.0,5.0,95,0.00,,,0.00,VWS V14.00,2013-02-09 07:35:00,
2013-02-09 02:41:00,31.3,30.0,29.83,North,9,8.0,8.0,95,0.00,,,0.00,VWS V14.00,2013-02-09 07:41:00,
2013-02-09 02:46:00,31.3,30.0,29.84,NNW,339,2.0,9.0,95,0.00,,,0.00,VWS V14.00,2013-02-09 07:46:00,
2013-02-09 02:51:00,31.4,30.1,29.84,NW,305,2.0,9.0,95,0.00,,,0.00,VWS V14.00,2013-02-09 07:51:00,
2013-02-09 02:56:00,31.4,30.1,29.84,NNE,27,2.0,9.0,95,0.00,,,0.00,VWS V14.00,2013-02-09 07:56:00,
2013-02-09 03:00:00,31.4,30.1,29.84,NW,311,2.0,9.0,95,0.00,,CLR,0.00,VWS V14.00,2013-02-09 08:00:00,
2013-02-09 03:01:00,31.4,30.1,29.85,NNW,346,4.0,5.0,95,0.00,,,0.00,VWS V14.00,2013-02-09 08:01:00,
2013-02-09 03:06:00,31.4,30.1,29.85,NNW,335,4.0,6.0,95,0.00,,,0.00,VWS V14.00,2013-02-09 08:06:00,
2013-02-09 03:11:00,31.5,30.2,29.85,North,8,5.0,6.0,95,0.00,,,0.00,VWS V14.00,2013-02-09 08:11:00,
2013-02-09 03:16:00,31.5,30.2,29.85,NNW,334,1.0,7.0,95,0.00,,,0.00,VWS V14.00,2013-02-09 08:16:00,
2013-02-09 03:21:00,31.5,30.2,29.85,North,354,0.0,7.0,95,0.00,,,0.00,VWS V14.00,2013-02-09 08:21:00,
2013-02-09 03:26:00,31.5,30.2,29.85,NNW,342,7.0,8.0,95,0.00,,,0.00,VWS V14.00,2013-02-09 08:26:00,
2013-02-09 03:30:00,31.4,30.1,29.86,WNW,293,4.0,13.0,95,0.00,,CLR,0.00,VWS V14.00,2013-02-09 08:30:00,
2013-02-09 03:31:00,31.2,29.9,29.86,NW,326,9.0,12.0,95,0.00,,,0.00,VWS V14.00,2013-02-09 08:31:00,
2013-02-09 03:36:00,30.1,28.3,29.87,NW,307,8.0,12.0,93,0.00,,,0.00,VWS V14.00,2013-02-09 08:36:00,
2013-02-09 03:41:00,29.2,27.2,29.87,NNW,329,11.0,14.0,92,0.00,,,0.00,VWS V14.00,2013-02-09 08:41:00,
2013-02-09 03:46:00,28.5,26.7,29.87,NNE,19,2.0,14.0,93,0.00,,,0.00,VWS V14.00,2013-02-09 08:46:00,
2013-02-09 03:51:00,28.3,26.5,29.88,NW,319,1.0,14.0,93,0.00,,,0.00,VWS V14.00,2013-02-09 08:51:00,
2013-02-09 03:56:00,28.1,26.3,29.88,WNW,294,3.0,14.0,93,0.00,,,0.00,VWS V14.00,2013-02-09 08:56:00,
2013-02-09 04:00:00,27.9,25.9,29.88,NW,309,5.0,14.0,92,0.00,,CLR,0.00,VWS V14.00,2013-02-09 09:00:00,
2013-02-09 04:01:00,27.7,25.7,29.89,West,274,4.0,8.0,92,0.00,,,0.00,VWS V14.00,2013-02-09 09:01:00,
2013-02-09 04:06:00,27.3,25.3,29.89,WNW,283,9.0,12.0,92,0.00,,,0.00,VWS V14.00,2013-02-09 09:06:00,
2013-02-09 04:11:00,26.9,24.6,29.89,NNW,338,9.0,12.0,91,0.00,,,0.00,VWS V14.00,2013-02-09 09:11:00,
2013-02-09 04:16:00,26.6,24.3,29.89,NW,304,6.0,12.0,91,0.00,,,0.00,VWS V14.00,2013-02-09 09:16:00,
2013-02-09 04:22:00,26.3,24.0,29.90,NNE,18,5.0,12.0,91,0.00,,,0.00,VWS V14.00,2013-02-09 09:22:00,
2013-02-09 04:27:00,26.1,23.8,29.90,NW,316,9.0,13.0,91,0.00,,,0.00,VWS V14.00,2013-02-09 09:27:00,
2013-02-09 04:30:00,26.0,23.7,29.90,NW,326,5.0,13.0,91,0.00,,CLR,0.00,VWS V14.00,2013-02-09 09:30:00,
2013-02-09 04:32:00,25.9,23.6,29.91,NW,321,10.0,10.0,91,0.00,,,0.00,VWS V14.00,2013-02-09 09:32:00,
2013-02-09 04:37:00,25.8,23.3,29.91,NW,318,3.0,10.0,90,0.00,,,0.00,VWS V14.00,2013-02-09 09:37:00,
2013-02-09 04:42:00,25.7,23.2,29.91,NW,319,5.0,14.0,90,0.00,,,0.00,VWS V14.00,2013-02-09 09:42:00,
2013-02-09 04:47:00,25.6,23.1,29.91,NW,304,5.0,14.0,90,0.00,,,0.00,VWS V14.00,2013-02-09 09:47:00,
2013-02-09 04:52:00,25.5,22.7,29.91,NW,314,4.0,14.0,89,0.00,,,0.00,VWS V14.00,2013-02-09 09:52:00,
2013-02-09 04:57:00,25.4,22.9,29.92,NNW,344,6.0,14.0,90,0.00,,,0.00,VWS V14.00,2013-02-09 09:57:00,
2013-02-09 05:00:00,25.4,22.9,29.92,NW,310,2.0,14.0,90,0.00,,CLR,0.00,VWS V14.00,2013-02-09 10:00:00,
2013-02-09 05:02:00,25.4,22.6,29.92,NW,307,2.0,6.0,89,0.00,,,0.00,VWS V14.00,2013-02-09 10:02:00,
2013-02-09 05:07:00,25.3,22.5,29.92,NNW,348,4.0,11.0,89,0.00,,,0.00,VWS V14.00,2013-02-09 10:07:00,
2013-02-09 05:12:00,25.3,22.5,29.92,WNW,297,6.0,15.0,89,0.00,,,0.00,VWS V14.00,2013-02-09 10:12:00,
2013-02-09 05:17:00,25.3,22.5,29.93,WNW,301,3.0,15.0,89,0.00,,,0.00,VWS V14.00,2013-02-09 10:17:00,
2013-02-09 05:22:00,25.3,22.2,29.93,North,11,3.0,15.0,88,0.00,,,0.00,VWS V14.00,2013-02-09 10:22:00,
2013-02-09 05:27:00,25.3,22.0,29.93,NW,318,3.0,15.0,87,0.00,,,0.00,VWS V14.00,2013-02-09 10:27:00,
2013-02-09 05:30:00,25.3,22.2,29.93,WNW,301,5.0,15.0,88,0.00,,CLR,0.00,VWS V14.00,2013-02-09 10:30:00,
2013-02-09 05:32:00,25.3,22.2,29.93,WNW,290,3.0,11.0,88,0.00,,,0.00,VWS V14.00,2013-02-09 10:32:00,
2013-02-09 05:37:00,25.2,22.1,29.93,North,359,2.0,11.0,88,0.00,,,0.00,VWS V14.00,2013-02-09 10:37:00,
2013-02-09 05:42:00,25.2,21.9,29.93,NW,307,1.0,11.0,87,0.00,,,0.00,VWS V14.00,2013-02-09 10:42:00,
2013-02-09 05:47:00,25.2,21.6,29.93,West,263,0.0,13.0,86,0.00,,,0.00,VWS V14.00,2013-02-09 10:47:00,
2013-02-09 05:53:00,25.2,21.6,29.94,NW,308,10.0,13.0,86,0.00,,,0.00,VWS V14.00,2013-02-09 10:53:00,
2013-02-09 05:58:00,25.1,21.5,29.94,WNW,285,6.0,13.0,86,0.00,,,0.00,VWS V14.00,2013-02-09 10:58:00,
2013-02-09 06:00:00,25.1,21.5,29.94,NW,309,5.0,13.0,86,0.00,,CLR,0.00,VWS V14.00,2013-02-09 11:00:00,
2013-02-09 06:03:00,25.1,21.5,29.94,NW,315,8.0,9.0,86,0.00,,OVC070,0.00,VWS V14.00,2013-02-09 11:03:00,
2013-02-09 06:08:00,25.2,21.3,29.94,NW,316,7.0,13.0,85,0.00,,OVC070,0.00,VWS V14.00,2013-02-09 11:08:00,
2013-02-09 06:13:00,25.1,21.2,29.95,NW,307,4.0,13.0,85,0.00,,OVC070,0.00,VWS V14.00,2013-02-09 11:13:00,
2013-02-09 06:18:00,25.2,21.0,29.96,NW,310,8.0,13.0,84,0.00,,OVC070,0.00,VWS V14.00,2013-02-09 11:18:00,
2013-02-09 06:23:00,25.3,21.1,29.96,NNW,335,2.0,13.0,84,0.00,,OVC070,0.00,VWS V14.00,2013-02-09 11:23:00,
2013-02-09 06:28:00,25.3,21.1,29.96,NW,315,5.0,13.0,84,0.00,,OVC070,0.00,VWS V14.00,2013-02-09 11:28:00,
2013-02-09 06:30:00,25.3,20.9,29.96,NW,314,3.0,13.0,83,0.00,,CLR,0.00,VWS V14.00,2013-02-09 11:30:00,
2013-02-09 06:33:00,25.3,21.1,29.96,North,6,4.0,9.0,84,0.00,,OVC070,0.00,VWS V14.00,2013-02-09 11:33:00,
2013-02-09 06:38:00,25.3,21.1,29.97,NNE,16,4.0,9.0,84,0.00,,OVC070,0.00,VWS V14.00,2013-02-09 11:38:00,
2013-02-09 06:43:00,25.2,20.8,29.97,WNW,288,4.0,9.0,83,0.00,,OVC070,0.00,VWS V14.00,2013-02-09 11:43:00,
2013-02-09 06:48:00,25.2,20.5,29.97,WNW,301,3.0,11.0,82,0.00,,OVC070,0.00,VWS V14.00,2013-02-09 11:48:00,
2013-02-09 06:53:00,25.1,20.7,29.97,West,267,3.0,11.0,83,0.00,,OVC070,0.00,VWS V14.00,2013-02-09 11:53:00,
2013-02-09 06:58:00,25.0,20.3,29.97,WNW,295,3.0,11.0,82,0.00,,OVC070,0.00,VWS V14.00,2013-02-09 11:58:00,
2013-02-09 07:00:00,25.3,19.7,30.02,WNW,285,10.0,12.0,79,0.00,,CLR,0.00,VWS V14.00,2013-02-09 12:00:00,
2013-02-09 07:03:00,24.9,20.5,29.98,WNW,298,2.0,6.0,83,0.00,,OVC080,0.00,VWS V14.00,2013-02-09 12:03:00,
2013-02-09 07:08:00,24.8,20.1,29.98,NW,319,1.0,11.0,82,0.00,,OVC080,0.00,VWS V14.00,2013-02-09 12:08:00,
2013-02-09 07:13:00,24.8,20.1,29.99,West,274,2.0,11.0,82,0.00,,OVC080,0.00,VWS V14.00,2013-02-09 12:13:00,
2013-02-09 07:18:00,24.7,20.0,30.00,NNE,27,3.0,11.0,82,0.00,,OVC080,0.00,VWS V14.00,2013-02-09 12:18:00,
2013-02-09 07:23:00,24.6,20.2,30.00,WNW,300,7.0,11.0,83,0.00,,OVC080,0.00,VWS V14.00,2013-02-09 12:23:00,
2013-02-09 07:29:00,24.7,20.0,30.01,WSW,255,3.0,11.0,82,0.00,,OVC080,0.00,VWS V14.00,2013-02-09 12:29:00,
2013-02-09 07:30:00,24.7,19.7,30.01,NW,316,2.0,11.0,81,0.00,,CLR,0.00,VWS V14.00,2013-02-09 12:30:00,
2013-02-09 07:34:00,24.7,19.7,30.01,NNE,30,1.0,6.0,81,0.00,,OVC080,0.00,VWS V14.00,2013-02-09 12:34:00,
2013-02-09 07:39:00,24.7,20.0,30.01,WNW,301,0.0,6.0,82,0.00,,OVC080,0.00,VWS V14.00,2013-02-09 12:39:00,
2013-02-09 07:44:00,24.8,19.8,30.01,NW,321,4.0,9.0,81,0.00,,OVC080,0.00,VWS V14.00,2013-02-09 12:44:00,
2013-02-09 07:49:00,24.9,19.6,30.01,WNW,297,6.0,10.0,80,0.00,,OVC080,0.00,VWS V14.00,2013-02-09 12:49:00,
2013-02-09 07:54:00,25.1,19.8,30.02,South,186,2.0,10.0,80,0.00,,OVC080,0.00,VWS V14.00,2013-02-09 12:54:00,
2013-02-09 07:59:00,25.3,19.7,30.02,NW,325,5.0,10.0,79,0.00,,OVC080,0.00,VWS V14.00,2013-02-09 12:59:00,
2013-02-09 08:00:00,25.3,19.7,30.02,WNW,285,10.0,12.0,79,0.00,,CLR,0.00,VWS V14.00,2013-02-09 13:00:00,
2013-02-09 08:04:00,25.5,19.9,30.02,WNW,300,3.0,11.0,79,0.00,,OVC110,0.00,VWS V14.00,2013-02-09 13:04:00,
2013-02-09 08:09:00,25.8,20.2,30.02,NW,309,3.0,11.0,79,0.00,,OVC110,0.00,VWS V14.00,2013-02-09 13:09:00,
2013-02-09 08:14:00,25.8,19.9,30.02,WNW,287,7.0,11.0,78,0.00,,OVC110,0.00,VWS V14.00,2013-02-09 13:14:00,
2013-02-09 08:19:00,25.9,19.7,30.02,NW,310,5.0,13.0,77,0.00,,OVC110,0.00,VWS V14.00,2013-02-09 13:19:00,
2013-02-09 08:24:00,26.0,20.1,30.02,NW,319,4.0,15.0,78,0.00,,OVC110,0.00,VWS V14.00,2013-02-09 13:24:00,
2013-02-09 08:29:00,26.0,20.1,30.03,NNW,327,2.0,16.0,78,0.00,,OVC110,0.00,VWS V14.00,2013-02-09 13:29:00,
2013-02-09 08:30:00,26.0,20.1,30.03,North,349,3.0,16.0,78,0.00,,CLR,0.00,VWS V14.00,2013-02-09 13:30:00,
2013-02-09 08:34:00,26.0,20.1,30.02,WNW,285,6.0,12.0,78,0.00,,OVC110,0.00,VWS V14.00,2013-02-09 13:34:00,
2013-02-09 08:39:00,26.0,19.8,30.02,NW,325,3.0,18.0,77,0.00,,OVC110,0.00,VWS V14.00,2013-02-09 13:39:00,
2013-02-09 08:44:00,26.2,20.3,30.02,NNW,331,6.0,18.0,78,0.00,,OVC110,0.00,VWS V14.00,2013-02-09 13:44:00,
2013-02-09 08:49:00,26.3,19.8,30.02,NNW,347,12.0,18.0,76,0.00,,OVC110,0.00,VWS V14.00,2013-02-09 13:49:00,
2013-02-09 08:55:00,26.5,20.0,30.02,NW,310,5.0,18.0,76,0.00,,OVC110,0.00,VWS V14.00,2013-02-09 13:55:00,
2013-02-09 09:00:00,26.8,20.0,30.02,NW,320,7.0,7.0,75,0.00,,OVC110,0.00,VWS V14.00,2013-02-09 14:00:00,
2013-02-09 09:05:00,27.1,19.9,30.03,NW,319,5.0,15.0,74,0.00,,OVC110,0.00,VWS V14.00,2013-02-09 14:05:00,
2013-02-09 09:10:00,27.4,20.2,30.03,ENE,58,2.0,15.0,74,0.00,,OVC110,0.00,VWS V14.00,2013-02-09 14:10:00,
2013-02-09 09:15:00,27.7,20.5,30.04,NW,313,5.0,15.0,74,0.00,,OVC110,0.00,VWS V14.00,2013-02-09 14:15:00,
2013-02-09 09:20:00,28.0,20.5,30.04,West,276,4.0,15.0,73,0.00,,OVC110,0.00,VWS V14.00,2013-02-09 14:20:00,
2013-02-09 09:25:00,28.1,20.6,30.05,NW,323,0.0,15.0,73,0.00,,OVC110,0.00,VWS V14.00,2013-02-09 14:25:00,
2013-02-09 09:30:00,28.4,20.9,30.06,WNW,287,7.0,9.0,73,0.00,,OVC110,0.00,VWS V14.00,2013-02-09 14:30:00,
2013-02-09 09:35:00,28.2,20.4,30.06,WSW,252,2.0,17.0,72,0.00,,OVC110,0.00,VWS V14.00,2013-02-09 14:35:00,
2013-02-09 09:40:00,28.3,19.5,30.06,SW,219,5.0,21.0,69,0.00,,OVC110,0.00,VWS V14.00,2013-02-09 14:40:00,
2013-02-09 09:45:00,28.0,19.8,30.06,NNE,19,6.0,21.0,71,0.00,,OVC110,0.00,VWS V14.00,2013-02-09 14:45:00,
2013-02-09 09:50:00,28.0,19.5,30.07,NNE,15,2.0,21.0,70,0.00,,OVC110,0.00,VWS V14.00,2013-02-09 14:50:00,
2013-02-09 09:55:00,28.2,19.4,30.07,WNW,302,5.0,21.0,69,0.00,,OVC110,0.00,VWS V14.00,2013-02-09 14:55:00,
2013-02-09 10:00:00,28.3,20.1,30.08,WSW,246,1.0,3.0,71,0.00,,OVC110,0.00,VWS V14.00,2013-02-09 15:00:00,
2013-02-09 10:05:00,28.5,20.0,30.08,NW,319,1.0,10.0,70,0.00,,CLR,0.00,VWS V14.00,2013-02-09 15:05:00,
2013-02-09 10:10:00,28.8,19.6,30.08,NNW,345,6.0,19.0,68,0.00,,CLR,0.00,VWS V14.00,2013-02-09 15:10:00,
2013-02-09 10:15:00,29.2,20.0,30.08,WNW,290,7.0,19.0,68,0.00,,CLR,0.00,VWS V14.00,2013-02-09 15:15:00,
2013-02-09 10:20:00,29.5,20.6,30.08,North,359,3.0,19.0,69,0.00,,CLR,0.00,VWS V14.00,2013-02-09 15:20:00,
2013-02-09 10:26:00,29.7,19.4,30.08,NW,311,12.0,19.0,65,0.00,,CLR,0.00,VWS V14.00,2013-02-09 15:26:00,
2013-02-09 10:30:00,29.8,19.5,30.08,NNW,347,4.0,19.0,65,0.00,,CLR,0.00,VWS V14.00,2013-02-09 15:30:00,
2013-02-09 10:31:00,29.7,19.8,30.09,West,263,4.0,6.0,66,0.00,,CLR,0.00,VWS V14.00,2013-02-09 15:31:00,
2013-02-09 10:36:00,29.5,19.6,30.09,NNE,15,4.0,15.0,66,0.00,,CLR,0.00,VWS V14.00,2013-02-09 15:36:00,
2013-02-09 10:41:00,29.6,19.3,30.09,North,360,17.0,17.0,65,0.00,,CLR,0.00,VWS V14.00,2013-02-09 15:41:00,
2013-02-09 10:46:00,29.6,19.6,30.09,NNE,15,7.0,22.0,66,0.00,,CLR,0.00,VWS V14.00,2013-02-09 15:46:00,
2013-02-09 10:51:00,29.9,19.6,30.09,NW,308,4.0,22.0,65,0.00,,CLR,0.00,VWS V14.00,2013-02-09 15:51:00,
2013-02-09 10:56:00,29.8,19.1,30.09,WNW,297,6.0,23.0,64,0.00,,CLR,0.00,VWS V14.00,2013-02-09 15:56:00,
2013-02-09 11:00:00,29.9,19.2,30.09,SSE,150,1.0,23.0,64,0.00,,CLR,0.00,VWS V14.00,2013-02-09 16:00:00,
2013-02-09 11:01:00,30.0,19.0,30.09,North,351,8.0,16.0,63,0.00,,CLR,0.00,VWS V14.00,2013-02-09 16:01:00,
2013-02-09 11:06:00,30.2,19.9,30.09,NW,323,5.0,16.0,65,0.00,,CLR,0.00,VWS V14.00,2013-02-09 16:06:00,
2013-02-09 11:11:00,30.0,19.0,30.09,WNW,298,7.0,23.0,63,0.00,,CLR,0.00,VWS V14.00,2013-02-09 16:11:00,
2013-02-09 11:16:00,30.2,19.9,30.10,NW,316,11.0,23.0,65,0.00,,CLR,0.00,VWS V14.00,2013-02-09 16:16:00,
2013-02-09 11:21:00,30.1,18.7,30.09,NW,315,8.0,23.0,62,0.00,,CLR,0.00,VWS V14.00,2013-02-09 16:21:00,
2013-02-09 11:26:00,29.9,18.9,30.10,NW,319,11.0,24.0,63,0.00,,CLR,0.00,VWS V14.00,2013-02-09 16:26:00,
2013-02-09 11:30:00,29.9,18.9,30.10,NW,305,7.0,24.0,63,0.00,,CLR,0.00,VWS V14.00,2013-02-09 16:30:00,
2013-02-09 11:31:00,30.0,18.6,30.09,NNW,339,8.0,16.0,62,0.00,,CLR,0.00,VWS V14.00,2013-02-09 16:31:00,
2013-02-09 11:36:00,30.2,19.1,30.10,NE,42,6.0,16.0,63,0.00,,CLR,0.00,VWS V14.00,2013-02-09 16:36:00,
2013-02-09 11:41:00,30.5,19.0,30.10,NNW,328,13.0,20.0,62,0.00,,CLR,0.00,VWS V14.00,2013-02-09 16:41:00,
2013-02-09 11:46:00,30.7,18.9,30.10,ENE,72,4.0,20.0,61,0.00,,CLR,0.00,VWS V14.00,2013-02-09 16:46:00,
2013-02-09 11:52:00,30.9,19.0,30.11,North,11,15.0,24.0,61,0.00,,CLR,0.00,VWS V14.00,2013-02-09 16:52:00,
2013-02-09 11:57:00,31.0,18.8,30.11,NE,37,6.0,24.0,60,0.00,,CLR,0.00,VWS V14.00,2013-02-09 16:57:00,
2013-02-09 12:00:00,31.2,19.0,30.11,WNW,300,9.0,24.0,60,0.00,,CLR,0.00,VWS V14.00,2013-02-09 17:00:00,
2013-02-09 12:02:00,31.3,19.8,30.12,NNW,328,7.0,9.0,62,0.00,,CLR,0.00,VWS V14.00,2013-02-09 17:02:00,
2013-02-09 12:07:00,31.6,19.3,30.12,North,350,9.0,11.0,60,0.00,,CLR,0.00,VWS V14.00,2013-02-09 17:07:00,
2013-02-09 12:12:00,31.7,19.0,30.12,West,269,9.0,13.0,59,0.00,,CLR,0.00,VWS V14.00,2013-02-09 17:12:00,
2013-02-09 12:17:00,32.1,19.0,30.12,North,359,5.0,17.0,58,0.00,,CLR,0.00,VWS V14.00,2013-02-09 17:17:00,
2013-02-09 12:22:00,32.6,19.1,30.12,WNW,285,10.0,17.0,57,0.00,,CLR,0.00,VWS V14.00,2013-02-09 17:22:00,
2013-02-09 12:27:00,32.3,18.4,30.12,NNW,330,5.0,17.0,56,0.00,,CLR,0.00,VWS V14.00,2013-02-09 17:27:00,
2013-02-09 12:30:00,32.5,19.4,30.13,NNW,345,16.0,17.0,58,0.00,,CLR,0.00,VWS V14.00,2013-02-09 17:30:00,
2013-02-09 12:32:00,32.5,18.6,30.12,North,359,7.0,18.0,56,0.00,,CLR,0.00,VWS V14.00,2013-02-09 17:32:00,
2013-02-09 12:37:00,32.3,18.0,30.12,ENE,61,15.0,24.0,55,0.00,,CLR,0.00,VWS V14.00,2013-02-09 17:37:00,
2013-02-09 12:42:00,32.4,18.9,30.12,NNW,339,7.0,24.0,57,0.00,,CLR,0.00,VWS V14.00,2013-02-09 17:42:00,
2013-02-09 12:47:00,32.5,18.1,30.12,NW,320,9.0,24.0,55,0.00,,CLR,0.00,VWS V14.00,2013-02-09 17:47:00,
2013-02-09 12:52:00,32.5,17.7,30.13,NW,309,8.0,24.0,54,0.00,,CLR,0.00,VWS V14.00,2013-02-09 17:52:00,
2013-02-09 12:57:00,32.7,18.3,30.13,NW,304,7.0,24.0,55,0.00,,CLR,0.00,VWS V14.00,2013-02-09 17:57:00,
2013-02-09 13:00:00,32.7,17.5,30.13,NNW,329,18.0,24.0,53,0.00,,CLR,0.00,VWS V14.00,2013-02-09 18:00:00,
2013-02-09 13:02:00,32.6,17.8,30.13,WNW,300,14.0,22.0,54,0.00,,CLR,0.00,VWS V14.00,2013-02-09 18:02:00,
2013-02-09 13:07:00,32.5,17.3,30.14,NNW,338,8.0,22.0,53,0.00,,CLR,0.00,VWS V14.00,2013-02-09 18:07:00,
2013-02-09 13:12:00,32.6,17.8,30.14,NW,323,6.0,22.0,54,0.00,,CLR,0.00,VWS V14.00,2013-02-09 18:12:00,
2013-02-09 13:17:00,33.0,18.2,30.14,NNE,25,5.0,22.0,54,0.00,,CLR,0.00,VWS V14.00,2013-02-09 18:17:00,
2013-02-09 13:22:00,33.0,17.3,30.14,NW,322,17.0,22.0,52,0.00,,CLR,0.00,VWS V14.00,2013-02-09 18:22:00,
2013-02-09 13:28:00,32.9,17.2,30.14,WNW,291,8.0,22.0,52,0.00,,CLR,0.00,VWS V14.00,2013-02-09 18:28:00,
2013-02-09 13:30:00,32.9,17.2,30.14,WNW,299,8.0,22.0,52,0.00,,CLR,0.00,VWS V14.00,2013-02-09 18:30:00,
2013-02-09 13:33:00,33.0,17.3,30.14,North,351,8.0,11.0,52,0.00,,CLR,0.00,VWS V14.00,2013-02-09 18:33:00,
2013-02-09 13:38:00,33.1,17.4,30.14,NNW,330,5.0,13.0,52,0.00,,CLR,0.00,VWS V14.00,2013-02-09 18:38:00,
2013-02-09 13:43:00,33.3,16.7,30.14,NNW,340,13.0,13.0,50,0.00,,CLR,0.00,VWS V14.00,2013-02-09 18:43:00,
2013-02-09 13:48:00,33.4,17.2,30.15,West,276,6.0,13.0,51,0.00,,CLR,0.00,VWS V14.00,2013-02-09 18:48:00,
2013-02-09 13:53:00,33.3,16.7,30.15,NNW,334,12.0,15.0,50,0.00,,CLR,0.00,VWS V14.00,2013-02-09 18:53:00,
2013-02-09 13:58:00,33.1,16.0,30.16,NNW,335,6.0,20.0,49,0.00,,CLR,0.00,VWS V14.00,2013-02-09 18:58:00,
2013-02-09 14:00:00,33.1,16.0,30.16,WSW,256,6.0,20.0,49,0.00,,CLR,0.00,VWS V14.00,2013-02-09 19:00:00,
2013-02-09 14:03:00,33.2,17.0,30.16,NNW,334,5.0,16.0,51,0.00,,CLR,0.00,VWS V14.00,2013-02-09 19:03:00,
2013-02-09 14:08:00,33.5,17.3,30.16,NW,309,13.0,16.0,51,0.00,,CLR,0.00,VWS V14.00,2013-02-09 19:08:00,
2013-02-09 14:13:00,33.7,16.6,30.15,NW,326,6.0,16.0,49,0.00,,CLR,0.00,VWS V14.00,2013-02-09 19:13:00,
2013-02-09 14:18:00,33.8,17.6,30.15,NW,319,7.0,16.0,51,0.00,,CLR,0.00,VWS V14.00,2013-02-09 19:18:00,
2013-02-09 14:23:00,33.6,16.0,30.15,North,352,6.0,18.0,48,0.00,,CLR,0.00,VWS V14.00,2013-02-09 19:23:00,
2013-02-09 14:28:00,33.8,16.7,30.16,NW,315,2.0,18.0,49,0.00,,CLR,0.00,VWS V14.00,2013-02-09 19:28:00,
2013-02-09 14:30:00,33.9,16.3,30.16,NW,326,7.0,18.0,48,0.00,,CLR,0.00,VWS V14.00,2013-02-09 19:30:00,
2013-02-09 14:33:00,34.2,17.0,30.16,NW,319,10.0,10.0,49,0.00,,CLR,0.00,VWS V14.00,2013-02-09 19:33:00,
2013-02-09 14:39:00,34.4,16.8,30.16,NNW,339,8.0,10.0,48,0.00,,CLR,0.00,VWS V14.00,2013-02-09 19:39:00,
2013-02-09 14:44:00,34.5,17.8,30.16,NNW,330,6.0,11.0,50,0.00,,CLR,0.00,VWS V14.00,2013-02-09 19:44:00,
2013-02-09 14:49:00,34.2,16.1,30.16,North,4,8.0,16.0,47,0.00,,CLR,0.00,VWS V14.00,2013-02-09 19:49:00,
2013-02-09 14:54:00,34.2,16.1,30.15,NNE,33,7.0,16.0,47,0.00,,CLR,0.00,VWS V14.00,2013-02-09 19:54:00,
2013-02-09 14:59:00,34.3,16.7,30.16,NW,320,9.0,16.0,48,0.00,,CLR,0.00,VWS V14.00,2013-02-09 19:59:00,
2013-02-09 15:00:00,34.3,16.2,30.16,NW,326,5.0,16.0,47,0.00,,CLR,0.00,VWS V14.00,2013-02-09 20:00:00,
2013-02-09 15:04:00,34.4,16.3,30.16,North,352,3.0,16.0,47,0.00,,CLR,0.00,VWS V14.00,2013-02-09 20:04:00,
2013-02-09 15:09:00,34.4,15.3,30.16,NW,319,7.0,16.0,45,0.00,,CLR,0.00,VWS V14.00,2013-02-09 20:09:00,
2013-02-09 15:14:00,34.3,16.2,30.17,NNE,22,8.0,16.0,47,0.00,,CLR,0.00,VWS V14.00,2013-02-09 20:14:00,
2013-02-09 15:19:00,34.2,16.1,30.17,WNW,302,12.0,16.0,47,0.00,,CLR,0.00,VWS V14.00,2013-02-09 20:19:00,
2013-02-09 15:24:00,34.0,14.9,30.17,SE,133,4.0,20.0,45,0.00,,CLR,0.00,VWS V14.00,2013-02-09 20:24:00,
2013-02-09 15:29:00,34.0,15.4,30.17,WNW,295,2.0,20.0,46,0.00,,CLR,0.00,VWS V14.00,2013-02-09 20:29:00,
2013-02-09 15:30:00,32.5,15.0,30.20,North,11,3.0,18.0,48,0.00,,CLR,0.00,VWS V14.00,2013-02-09 20:30:00,
2013-02-09 15:34:00,33.9,13.8,30.17,NW,323,9.0,15.0,43,0.00,,CLR,0.00,VWS V14.00,2013-02-09 20:34:00,
2013-02-09 15:39:00,33.8,15.2,30.17,NNW,346,8.0,19.0,46,0.00,,CLR,0.00,VWS V14.00,2013-02-09 20:39:00,
2013-02-09 15:44:00,33.8,15.7,30.17,WNW,290,7.0,19.0,47,0.00,,CLR,0.00,VWS V14.00,2013-02-09 20:44:00,
2013-02-09 15:49:00,33.7,14.6,30.18,NNW,334,12.0,19.0,45,0.00,,CLR,0.00,VWS V14.00,2013-02-09 20:49:00,
2013-02-09 15:54:00,33.6,15.0,30.18,West,279,1.0,19.0,46,0.00,,CLR,0.00,VWS V14.00,2013-02-09 20:54:00,
2013-02-09 15:59:00,33.5,15.4,30.18,NNW,341,4.0,19.0,47,0.00,,CLR,0.00,VWS V14.00,2013-02-09 20:59:00,
2013-02-09 16:00:00,33.5,15.4,30.18,NNW,341,4.0,19.0,47,0.00,,CLR,0.00,VWS V14.00,2013-02-09 21:00:00,
2013-02-09 16:04:00,33.4,15.8,30.19,NNW,336,4.0,12.0,48,0.00,,CLR,0.00,VWS V14.00,2013-02-09 21:04:00,
2013-02-09 16:10:00,33.2,15.6,30.19,NW,316,3.0,12.0,48,0.00,,CLR,0.00,VWS V14.00,2013-02-09 21:10:00,
2013-02-09 16:15:00,33.0,14.5,30.19,WNW,302,3.0,12.0,46,0.00,,CLR,0.00,VWS V14.00,2013-02-09 21:15:00,
2013-02-09 16:20:00,32.9,14.4,30.19,WNW,303,13.0,14.0,46,0.00,,CLR,0.00,VWS V14.00,2013-02-09 21:20:00,
2013-02-09 16:25:00,32.6,13.6,30.20,NNW,333,8.0,18.0,45,0.00,,CLR,0.00,VWS V14.00,2013-02-09 21:25:00,
2013-02-09 16:30:00,32.5,15.0,30.20,North,350,6.0,8.0,48,0.00,,CLR,0.00,VWS V14.00,2013-02-09 21:30:00,
2013-02-09 16:35:00,32.4,14.4,30.20,NW,323,8.0,9.0,47,0.00,,CLR,0.00,VWS V14.00,2013-02-09 21:35:00,
2013-02-09 16:40:00,32.3,12.8,30.20,NW,312,15.0,17.0,44,0.00,,CLR,0.00,VWS V14.00,2013-02-09 21:40:00,
2013-02-09 16:45:00,32.1,13.2,30.21,WNW,293,5.0,17.0,45,0.00,,CLR,0.00,VWS V14.00,2013-02-09 21:45:00,
2013-02-09 16:50:00,31.9,13.5,30.21,NW,322,7.0,17.0,46,0.00,,CLR,0.00,VWS V14.00,2013-02-09 21:50:00,
2013-02-09 16:55:00,31.7,13.3,30.21,NW,326,3.0,17.0,46,0.00,,CLR,0.00,VWS V14.00,2013-02-09 21:55:00,
2013-02-09 17:00:00,31.3,12.9,30.21,North,354,5.0,9.0,46,0.00,,CLR,0.00,VWS V14.00,2013-02-09 22:00:00,
2013-02-09 17:05:00,30.8,13.0,30.22,NNW,336,4.0,11.0,47,0.00,,CLR,0.00,VWS V14.00,2013-02-09 22:05:00,
2013-02-09 17:10:00,30.2,12.9,30.22,NNW,342,11.0,13.0,48,0.00,,CLR,0.00,VWS V14.00,2013-02-09 22:10:00,
2013-02-09 17:15:00,30.0,12.2,30.22,NNW,341,8.0,16.0,47,0.00,,CLR,0.00,VWS V14.00,2013-02-09 22:15:00,
2013-02-09 17:21:00,29.7,12.4,30.23,NE,34,4.0,16.0,48,0.00,,CLR,0.00,VWS V14.00,2013-02-09 22:21:00,
2013-02-09 17:26:00,29.5,12.2,30.23,NNE,22,4.0,16.0,48,0.00,,CLR,0.00,VWS V14.00,2013-02-09 22:26:00,
2013-02-09 17:30:00,29.3,12.1,30.23,NNW,332,3.0,16.0,48,0.00,,CLR,0.00,VWS V14.00,2013-02-09 22:30:00,
2013-02-09 17:31:00,29.2,12.0,30.24,North,351,8.0,14.0,48,0.00,,CLR,0.00,VWS V14.00,2013-02-09 22:31:00,
2013-02-09 17:36:00,29.0,11.8,30.24,North,350,1.0,14.0,48,0.00,,CLR,0.00,VWS V14.00,2013-02-09 22:36:00,
2013-02-09 17:41:00,28.9,12.1,30.25,NW,310,1.0,14.0,49,0.00,,CLR,0.00,VWS V14.00,2013-02-09 22:41:00,
2013-02-09 17:46:00,28.5,11.8,30.25,NW,307,4.0,14.0,49,0.00,,CLR,0.00,VWS V14.00,2013-02-09 22:46:00,
2013-02-09 17:51:00,28.5,11.3,30.25,WNW,300,10.0,14.0,48,0.00,,CLR,0.00,VWS V14.00,2013-02-09 22:51:00,
2013-02-09 17:56:00,28.3,11.6,30.25,NW,323,6.0,14.0,49,0.00,,CLR,0.00,VWS V14.00,2013-02-09 22:56:00,
2013-02-09 18:00:00,28.2,11.0,30.25,NNW,339,5.0,15.0,48,0.00,,CLR,0.00,VWS V14.00,2013-02-09 23:00:00,
2013-02-09 18:01:00,28.2,11.0,30.25,NNW,328,2.0,14.0,48,0.00,,CLR,0.00,VWS V14.00,2013-02-09 23:01:00,
2013-02-09 18:06:00,28.0,10.9,30.25,NW,309,3.0,14.0,48,0.00,,CLR,0.00,VWS V14.00,2013-02-09 23:06:00,
2013-02-09 18:11:00,27.8,10.7,30.25,NW,304,10.0,15.0,48,0.00,,CLR,0.00,VWS V14.00,2013-02-09 23:11:00,
2013-02-09 18:16:00,27.8,10.7,30.26,NW,316,2.0,15.0,48,0.00,,CLR,0.00,VWS V14.00,2013-02-09 23:16:00,
2013-02-09 18:21:00,27.6,10.5,30.26,North,350,3.0,15.0,48,0.00,,CLR,0.00,VWS V14.00,2013-02-09 23:21:00,
2013-02-09 18:26:00,27.4,10.8,30.27,NW,311,4.0,15.0,49,0.00,,CLR,0.00,VWS V14.00,2013-02-09 23:26:00,
2013-02-09 18:30:00,27.3,10.7,30.27,NW,314,4.0,15.0,49,0.00,,CLR,0.00,VWS V14.00,2013-02-09 23:30:00,
2013-02-09 18:31:00,27.3,10.7,30.27,NW,321,2.0,13.0,49,0.00,,CLR,0.00,VWS V14.00,2013-02-09 23:31:00,
2013-02-09 18:37:00,27.1,10.5,30.27,NNW,331,6.0,14.0,49,0.00,,CLR,0.00,VWS V14.00,2013-02-09 23:37:00,
2013-02-09 18:42:00,27.0,10.4,30.27,NNE,19,4.0,14.0,49,0.00,,CLR,0.00,VWS V14.00,2013-02-09 23:42:00,
2013-02-09 18:47:00,26.9,10.3,30.27,NW,314,10.0,14.0,49,0.00,,CLR,0.00,VWS V14.00,2013-02-09 23:47:00,
2013-02-09 18:52:00,26.7,10.1,30.27,NNW,345,1.0,14.0,49,0.00,,CLR,0.00,VWS V14.00,2013-02-09 23:52:00,
2013-02-09 18:57:00,26.6,10.0,30.27,NW,314,7.0,14.0,49,0.00,,CLR,0.00,VWS V14.00,2013-02-09 23:57:00,
2013-02-09 19:00:00,26.5,9.9,30.28,West,276,3.0,14.0,49,0.00,,CLR,0.00,VWS V14.00,2013-02-10 00:00:00,
2013-02-09 19:02:00,26.5,9.9,30.28,NNW,329,7.0,12.0,49,0.00,,CLR,0.00,VWS V14.00,2013-02-10 00:02:00,
2013-02-09 19:07:00,26.5,9.9,30.28,NE,39,2.0,14.0,49,0.00,,CLR,0.00,VWS V14.00,2013-02-10 00:07:00,
2013-02-09 19:12:00,26.2,9.7,30.28,NNW,331,4.0,14.0,49,0.00,,CLR,0.00,VWS V14.00,2013-02-10 00:12:00,
2013-02-09 19:17:00,26.2,9.7,30.28,NW,313,9.0,14.0,49,0.00,,CLR,0.00,VWS V14.00,2013-02-10 00:17:00,
2013-02-09 19:22:00,26.0,9.5,30.29,WNW,302,6.0,15.0,49,0.00,,CLR,0.00,VWS V14.00,2013-02-10 00:22:00,
2013-02-09 19:27:00,25.9,9.8,30.29,North,355,4.0,15.0,50,0.00,,CLR,0.00,VWS V14.00,2013-02-10 00:27:00,
2013-02-09 19:30:00,23.7,8.2,30.34,SSW,192,0.0,7.0,51,0.00,,CLR,0.00,VWS V14.00,2013-02-10 00:30:00,
2013-02-09 19:32:00,25.7,9.6,30.29,NW,326,2.0,9.0,50,0.00,,CLR,0.00,VWS V14.00,2013-02-10 00:32:00,
2013-02-09 19:37:00,25.4,9.4,30.29,North,356,7.0,9.0,50,0.00,,CLR,0.00,VWS V14.00,2013-02-10 00:37:00,
2013-02-09 19:42:00,25.4,9.4,30.30,NW,313,0.0,9.0,50,0.00,,CLR,0.00,VWS V14.00,2013-02-10 00:42:00,
2013-02-09 19:47:00,25.1,9.1,30.31,ENE,70,6.0,9.0,50,0.00,,CLR,0.00,VWS V14.00,2013-02-10 00:47:00,
2013-02-09 19:53:00,24.8,9.2,30.31,SSE,155,0.0,9.0,51,0.00,,CLR,0.00,VWS V14.00,2013-02-10 00:53:00,
2013-02-09 19:58:00,24.7,9.2,30.31,East,90,3.0,9.0,51,0.00,,CLR,0.00,VWS V14.00,2013-02-10 00:58:00,
2013-02-09 20:00:00,24.8,8.8,30.32,SE,124,0.0,9.0,50,0.00,,CLR,0.00,VWS V14.00,2013-02-10 01:00:00,
2013-02-09 20:03:00,24.7,8.7,30.32,SSE,148,0.0,1.0,50,0.00,,CLR,0.00,VWS V14.00,2013-02-10 01:03:00,
2013-02-09 20:08:00,24.5,8.5,30.32,West,278,1.0,2.0,50,0.00,,CLR,0.00,VWS V14.00,2013-02-10 01:08:00,
2013-02-09 20:13:00,24.5,8.1,30.33,South,179,2.0,7.0,49,0.00,,CLR,0.00,VWS V14.00,2013-02-10 01:13:00,
2013-02-09 20:18:00,24.0,8.5,30.33,ENE,77,0.0,7.0,51,0.00,,CLR,0.00,VWS V14.00,2013-02-10 01:18:00,
2013-02-09 20:23:00,23.7,8.2,30.33,SW,226,3.0,7.0,51,0.00,,CLR,0.00,VWS V14.00,2013-02-10 01:23:00,
2013-02-09 20:28:00,23.6,8.6,30.34,NW,326,5.0,7.0,52,0.00,,CLR,0.00,VWS V14.00,2013-02-10 01:28:00,
2013-02-09 20:30:00,23.7,8.2,30.34,SSW,192,0.0,7.0,51,0.00,,CLR,0.00,VWS V14.00,2013-02-10 01:30:00,
2013-02-09 20:33:00,23.8,8.3,30.34,NW,311,3.0,5.0,51,0.00,,CLR,0.00,VWS V14.00,2013-02-10 01:33:00,
2013-02-09 20:38:00,23.8,8.3,30.35,NW,307,6.0,6.0,51,0.00,,CLR,0.00,VWS V14.00,2013-02-10 01:38:00,
2013-02-09 20:43:00,23.8,7.9,30.35,NW,314,0.0,6.0,50,0.00,,CLR,0.00,VWS V14.00,2013-02-10 01:43:00,
2013-02-09 20:48:00,23.7,7.8,30.35,WSW,238,0.0,6.0,50,0.00,,CLR,0.00,VWS V14.00,2013-02-10 01:48:00,
2013-02-09 20:53:00,23.6,8.1,30.36,NE,56,1.0,6.0,51,0.00,,CLR,0.00,VWS V14.00,2013-02-10 01:53:00,
2013-02-09 20:59:00,23.2,8.2,30.36,ESE,115,0.0,6.0,52,0.00,,CLR,0.00,VWS V14.00,2013-02-10 01:59:00,
2013-02-09 21:00:00,23.2,7.8,30.36,South,175,1.0,6.0,51,0.00,,CLR,0.00,VWS V14.00,2013-02-10 02:00:00,
2013-02-09 21:04:00,23.3,7.9,30.36,WNW,293,0.0,8.0,51,0.00,,CLR,0.00,VWS V14.00,2013-02-10 02:04:00,
2013-02-09 21:09:00,22.9,7.9,30.36,NW,309,1.0,8.0,52,0.00,,CLR,0.00,VWS V14.00,2013-02-10 02:09:00,
2013-02-09 21:14:00,22.9,7.9,30.36,NW,308,1.0,8.0,52,0.00,,CLR,0.00,VWS V14.00,2013-02-10 02:14:00,
2013-02-09 21:19:00,22.7,8.1,30.36,NW,320,5.0,8.0,53,0.00,,CLR,0.00,VWS V14.00,2013-02-10 02:19:00,
2013-02-09 21:24:00,22.8,8.2,30.37,NW,309,6.0,8.0,53,0.00,,CLR,0.00,VWS V14.00,2013-02-10 02:24:00,
2013-02-09 21:29:00,22.7,7.7,30.37,NW,311,2.0,9.0,52,0.00,,CLR,0.00,VWS V14.00,2013-02-10 02:29:00,
2013-02-09 21:30:00,22.7,7.7,30.37,NW,311,2.0,9.0,52,0.00,,CLR,0.00,VWS V14.00,2013-02-10 02:30:00,
2013-02-09 21:34:00,22.7,7.7,30.37,NW,314,0.0,7.0,52,0.00,,CLR,0.00,VWS V14.00,2013-02-10 02:34:00,
2013-02-09 21:39:00,22.7,7.7,30.37,NW,307,1.0,10.0,52,0.00,,CLR,0.00,VWS V14.00,2013-02-10 02:39:00,
2013-02-09 21:45:00,22.6,7.6,30.38,WNW,287,1.0,10.0,52,0.00,,CLR,0.00,VWS V14.00,2013-02-10 02:45:00,
2013-02-09 21:50:00,22.5,8.0,30.38,North,3,0.0,10.0,53,0.00,,CLR,0.00,VWS V14.00,2013-02-10 02:50:00,
2013-02-09 21:55:00,22.4,7.9,30.38,North,1,0.0,10.0,53,0.00,,CLR,0.00,VWS V14.00,2013-02-10 02:55:00,
2013-02-09 22:00:00,22.3,7.8,30.38,NW,308,2.0,4.0,53,0.00,,CLR,0.00,VWS V14.00,2013-02-10 03:00:00,
2013-02-09 22:05:00,22.3,7.8,30.38,North,350,0.0,7.0,53,0.00,,CLR,0.00,VWS V14.00,2013-02-10 03:05:00,
2013-02-09 22:10:00,22.2,7.7,30.38,NW,323,2.0,7.0,53,0.00,,CLR,0.00,VWS V14.00,2013-02-10 03:10:00,
2013-02-09 22:15:00,22.0,7.9,30.38,SW,235,0.0,7.0,54,0.00,,CLR,0.00,VWS V14.00,2013-02-10 03:15:00,
2013-02-09 22:20:00,21.8,7.7,30.38,West,276,1.0,7.0,54,0.00,,CLR,0.00,VWS V14.00,2013-02-10 03:20:00,
2013-02-09 22:25:00,21.9,7.4,30.39,NW,319,0.0,7.0,53,0.00,,CLR,0.00,VWS V14.00,2013-02-10 03:25:00,
2013-02-09 22:30:00,21.9,7.4,30.38,NW,322,0.0,2.0,53,0.00,,CLR,0.00,VWS V14.00,2013-02-10 03:30:00,
2013-02-09 22:35:00,21.4,7.3,30.39,West,273,0.0,2.0,54,0.00,,CLR,0.00,VWS V14.00,2013-02-10 03:35:00,
2013-02-09 22:40:00,21.3,7.7,30.39,NNW,340,0.0,2.0,55,0.00,,CLR,0.00,VWS V14.00,2013-02-10 03:40:00,
2013-02-09 22:45:00,20.7,7.1,30.39,NW,305,0.0,2.0,55,0.00,,CLR,0.00,VWS V14.00,2013-02-10 03:45:00,
2013-02-09 22:50:00,20.7,7.5,30.39,NNW,336,2.0,2.0,56,0.00,,CLR,0.00,VWS V14.00,2013-02-10 03:50:00,
2013-02-09 22:56:00,20.9,7.7,30.39,North,357,1.0,6.0,56,0.00,,CLR,0.00,VWS V14.00,2013-02-10 03:56:00,
2013-02-09 23:00:00,20.6,7.8,30.40,NW,308,1.0,6.0,57,0.00,,CLR,0.00,VWS V14.00,2013-02-10 04:00:00,
2013-02-09 23:01:00,20.5,8.1,30.40,NNW,346,2.0,3.0,58,0.00,,CLR,0.00,VWS V14.00,2013-02-10 04:01:00,
2013-02-09 23:06:00,20.6,7.4,30.40,NW,313,1.0,4.0,56,0.00,,CLR,0.00,VWS V14.00,2013-02-10 04:06:00,
2013-02-09 23:11:00,20.6,7.4,30.40,NNW,328,2.0,6.0,56,0.00,,CLR,0.00,VWS V14.00,2013-02-10 04:11:00,
2013-02-09 23:16:00,20.3,7.5,30.40,North,9,2.0,6.0,57,0.00,,CLR,0.00,VWS V14.00,2013-02-10 04:16:00,
2013-02-09 23:21:00,20.2,7.4,30.40,NNW,340,0.0,6.0,57,0.00,,CLR,0.00,VWS V14.00,2013-02-10 04:21:00,
2013-02-09 23:26:00,20.1,7.3,30.41,ENE,76,0.0,6.0,57,0.00,,CLR,0.00,VWS V14.00,2013-02-10 04:26:00,
2013-02-09 23:30:00,20.1,6.9,30.40,North,351,0.0,6.0,56,0.00,,CLR,0.00,VWS V14.00,2013-02-10 04:30:00,
2013-02-09 23:31:00,20.1,7.3,30.41,NW,325,0.0,0.0,57,0.00,,CLR,0.00,VWS V14.00,2013-02-10 04:31:00,
2013-02-09 23:36:00,20.0,6.8,30.41,ENE,70,4.0,4.0,56,0.00,,CLR,0.00,VWS V14.00,2013-02-10 04:36:00,
2013-02-09 23:41:00,20.3,6.7,30.41,NE,46,1.0,7.0,55,0.00,,CLR,0.00,VWS V14.00,2013-02-10 04:41:00,
2013-02-09 23:47:00,20.1,6.5,30.41,ENE,70,1.0,7.0,55,0.00,,CLR,0.00,VWS V14.00,2013-02-10 04:47:00,
2013-02-09 23:52:00,20.2,6.6,30.42,NE,37,3.0,7.0,55,0.00,,CLR,0.00,VWS V14.00,2013-02-10 04:52:00,
2013-02-09 23:57:00,20.2,6.6,30.42,ENE,73,3.0,7.0,55,0.00,,CLR,0.00,VWS V14.00,2013-02-10 04:57:00,